sensor_id;sensor_type;location;lat;lon;timestamp;P1;durP1;ratioP1;P2;durP2;ratioP2
31378;SDS011;61664;48.112;11.662;2023-07-24T00:00:33;3.97;;;3.58;;
31378;SDS011;61664;48.112;11.662;2023-07-24T00:03:02;4.72;;;4.05;;
31378;SDS011;61664;48.112;11.662;2023-07-24T00:05:29;4.68;;;4.00;;
31378;SDS011;61664;48.112;11.662;2023-07-24T00:07:56;4.40;;;4.00;;
31378;SDS011;61664;48.112;11.662;2023-07-24T00:10:23;4.28;;;3.80;;
31378;SDS011;61664;48.112;11.662;2023-07-24T00:12:51;4.13;;;3.75;;
31378;SDS011;61664;48.112;11.662;2023-07-24T00:15:18;4.53;;;3.97;;
31378;SDS011;61664;48.112;11.662;2023-07-24T00:17:45;4.18;;;3.45;;
31378;SDS011;61664;48.112;11.662;2023-07-24T00:20:12;4.28;;;3.88;;
31378;SDS011;61664;48.112;11.662;2023-07-24T00:22:39;4.45;;;4.05;;
31378;SDS011;61664;48.112;11.662;2023-07-24T00:25:06;3.95;;;3.55;;
31378;SDS011;61664;48.112;11.662;2023-07-24T00:27:35;4.28;;;3.72;;
31378;SDS011;61664;48.112;11.662;2023-07-24T00:30:02;3.88;;;3.22;;
31378;SDS011;61664;48.112;11.662;2023-07-24T00:32:29;3.67;;;3.28;;
31378;SDS011;61664;48.112;11.662;2023-07-24T00:34:56;4.47;;;4.07;;
31378;SDS011;61664;48.112;11.662;2023-07-24T00:37:24;3.72;;;3.42;;
31378;SDS011;61664;48.112;11.662;2023-07-24T00:39:51;3.53;;;3.22;;
31378;SDS011;61664;48.112;11.662;2023-07-24T00:42:18;3.58;;;3.28;;
31378;SDS011;61664;48.112;11.662;2023-07-24T00:44:45;3.70;;;3.40;;
31378;SDS011;61664;48.112;11.662;2023-07-24T00:47:12;4.68;;;3.63;;
31378;SDS011;61664;48.112;11.662;2023-07-24T00:49:39;3.80;;;3.50;;
31378;SDS011;61664;48.112;11.662;2023-07-24T00:52:07;3.47;;;3.08;;
31378;SDS011;61664;48.112;11.662;2023-07-24T00:54:34;3.63;;;3.33;;
31378;SDS011;61664;48.112;11.662;2023-07-24T00:57:02;4.68;;;3.92;;
31378;SDS011;61664;48.112;11.662;2023-07-24T00:59:31;4.03;;;3.63;;
31378;SDS011;61664;48.112;11.662;2023-07-24T01:01:59;3.55;;;3.25;;
31378;SDS011;61664;48.112;11.662;2023-07-24T01:04:26;3.72;;;3.40;;
31378;SDS011;61664;48.112;11.662;2023-07-24T01:06:54;4.78;;;4.07;;
31378;SDS011;61664;48.112;11.662;2023-07-24T01:09:21;3.25;;;2.90;;
31378;SDS011;61664;48.112;11.662;2023-07-24T01:11:59;3.40;;;3.10;;
31378;SDS011;61664;48.112;11.662;2023-07-24T01:14:38;3.85;;;3.00;;
31378;SDS011;61664;48.112;11.662;2023-07-24T01:17:16;3.13;;;2.90;;
31378;SDS011;61664;48.112;11.662;2023-07-24T01:19:52;3.83;;;3.53;;
31378;SDS011;61664;48.112;11.662;2023-07-24T01:22:30;3.97;;;3.60;;
31378;SDS011;61664;48.112;11.662;2023-07-24T01:25:18;3.42;;;3.13;;
31378;SDS011;61664;48.112;11.662;2023-07-24T01:27:58;4.03;;;3.67;;
31378;SDS011;61664;48.112;11.662;2023-07-24T01:30:25;3.25;;;2.95;;
31378;SDS011;61664;48.112;11.662;2023-07-24T01:32:52;3.67;;;3.38;;
31378;SDS011;61664;48.112;11.662;2023-07-24T01:35:19;3.15;;;2.95;;
31378;SDS011;61664;48.112;11.662;2023-07-24T01:37:47;4.82;;;4.25;;
31378;SDS011;61664;48.112;11.662;2023-07-24T01:40:15;3.67;;;3.38;;
31378;SDS011;61664;48.112;11.662;2023-07-24T01:42:43;3.67;;;3.38;;
31378;SDS011;61664;48.112;11.662;2023-07-24T01:45:10;4.10;;;3.70;;
31378;SDS011;61664;48.112;11.662;2023-07-24T01:47:37;3.83;;;3.47;;
31378;SDS011;61664;48.112;11.662;2023-07-24T01:50:05;3.58;;;3.28;;
31378;SDS011;61664;48.112;11.662;2023-07-24T01:52:32;4.65;;;3.47;;
31378;SDS011;61664;48.112;11.662;2023-07-24T01:54:59;4.70;;;3.83;;
31378;SDS011;61664;48.112;11.662;2023-07-24T01:57:26;3.90;;;3.55;;
31378;SDS011;61664;48.112;11.662;2023-07-24T01:59:53;3.88;;;3.53;;
31378;SDS011;61664;48.112;11.662;2023-07-24T02:02:20;4.07;;;3.45;;
31378;SDS011;61664;48.112;11.662;2023-07-24T02:04:47;3.55;;;3.25;;
31378;SDS011;61664;48.112;11.662;2023-07-24T02:07:14;4.10;;;3.70;;
31378;SDS011;61664;48.112;11.662;2023-07-24T02:12:56;3.20;;;2.90;;
31378;SDS011;61664;48.112;11.662;2023-07-24T02:15:23;3.85;;;3.33;;
31378;SDS011;61664;48.112;11.662;2023-07-24T02:17:50;3.67;;;3.38;;
31378;SDS011;61664;48.112;11.662;2023-07-24T02:20:17;3.53;;;3.17;;
31378;SDS011;61664;48.112;11.662;2023-07-24T02:22:44;4.38;;;4.03;;
31378;SDS011;61664;48.112;11.662;2023-07-24T02:25:10;3.38;;;3.08;;
31378;SDS011;61664;48.112;11.662;2023-07-24T02:27:37;3.55;;;3.25;;
31378;SDS011;61664;48.112;11.662;2023-07-24T02:30:04;3.50;;;3.20;;
31378;SDS011;61664;48.112;11.662;2023-07-24T02:32:32;3.67;;;3.33;;
31378;SDS011;61664;48.112;11.662;2023-07-24T02:34:59;3.83;;;3.42;;
31378;SDS011;61664;48.112;11.662;2023-07-24T02:37:26;3.80;;;3.50;;
31378;SDS011;61664;48.112;11.662;2023-07-24T02:39:53;3.03;;;2.83;;
31378;SDS011;61664;48.112;11.662;2023-07-24T02:42:20;4.85;;;3.65;;
31378;SDS011;61664;48.112;11.662;2023-07-24T02:44:47;4.40;;;4.00;;
31378;SDS011;61664;48.112;11.662;2023-07-24T02:47:14;3.88;;;3.50;;
31378;SDS011;61664;48.112;11.662;2023-07-24T02:49:40;4.15;;;3.75;;
31378;SDS011;61664;48.112;11.662;2023-07-24T02:52:07;3.95;;;3.38;;
31378;SDS011;61664;48.112;11.662;2023-07-24T02:54:34;3.30;;;3.00;;
31378;SDS011;61664;48.112;11.662;2023-07-24T02:57:01;4.63;;;4.10;;
31378;SDS011;61664;48.112;11.662;2023-07-24T02:59:29;3.35;;;3.10;;
31378;SDS011;61664;48.112;11.662;2023-07-24T03:01:57;3.92;;;3.63;;
31378;SDS011;61664;48.112;11.662;2023-07-24T03:04:25;3.35;;;3.05;;
31378;SDS011;61664;48.112;11.662;2023-07-24T03:06:52;3.65;;;3.35;;
31378;SDS011;61664;48.112;11.662;2023-07-24T03:09:19;3.97;;;3.42;;
31378;SDS011;61664;48.112;11.662;2023-07-24T03:11:46;3.58;;;3.25;;
31378;SDS011;61664;48.112;11.662;2023-07-24T03:14:13;4.22;;;3.83;;
31378;SDS011;61664;48.112;11.662;2023-07-24T03:16:41;6.13;;;4.47;;
31378;SDS011;61664;48.112;11.662;2023-07-24T03:19:08;5.22;;;4.43;;
31378;SDS011;61664;48.112;11.662;2023-07-24T03:21:35;5.18;;;4.45;;
31378;SDS011;61664;48.112;11.662;2023-07-24T03:24:02;4.97;;;4.57;;
31378;SDS011;61664;48.112;11.662;2023-07-24T03:26:29;4.82;;;4.38;;
31378;SDS011;61664;48.112;11.662;2023-07-24T03:28:57;5.65;;;4.95;;
31378;SDS011;61664;48.112;11.662;2023-07-24T03:31:24;5.35;;;4.70;;
31378;SDS011;61664;48.112;11.662;2023-07-24T03:33:51;6.32;;;4.75;;
31378;SDS011;61664;48.112;11.662;2023-07-24T03:36:17;7.25;;;4.07;;
31378;SDS011;61664;48.112;11.662;2023-07-24T03:38:46;4.95;;;4.38;;
31378;SDS011;61664;48.112;11.662;2023-07-24T03:41:13;5.18;;;4.63;;
31378;SDS011;61664;48.112;11.662;2023-07-24T03:43:40;5.47;;;4.82;;
31378;SDS011;61664;48.112;11.662;2023-07-24T03:46:07;6.57;;;5.25;;
31378;SDS011;61664;48.112;11.662;2023-07-24T03:48:34;6.35;;;4.80;;
31378;SDS011;61664;48.112;11.662;2023-07-24T03:51:02;5.95;;;5.10;;
31378;SDS011;61664;48.112;11.662;2023-07-24T03:53:29;5.22;;;4.70;;
31378;SDS011;61664;48.112;11.662;2023-07-24T03:55:58;8.23;;;5.00;;
31378;SDS011;61664;48.112;11.662;2023-07-24T03:58:25;6.15;;;4.60;;
31378;SDS011;61664;48.112;11.662;2023-07-24T04:00:52;5.32;;;4.82;;
31378;SDS011;61664;48.112;11.662;2023-07-24T04:03:19;5.60;;;5.05;;
31378;SDS011;61664;48.112;11.662;2023-07-24T04:05:46;6.13;;;5.05;;
31378;SDS011;61664;48.112;11.662;2023-07-24T04:08:13;7.38;;;5.45;;
31378;SDS011;61664;48.112;11.662;2023-07-24T04:10:40;5.30;;;4.80;;
31378;SDS011;61664;48.112;11.662;2023-07-24T04:13:07;6.78;;;5.35;;
31378;SDS011;61664;48.112;11.662;2023-07-24T04:15:34;6.20;;;5.30;;
31378;SDS011;61664;48.112;11.662;2023-07-24T04:18:00;10.15;;;5.80;;
31378;SDS011;61664;48.112;11.662;2023-07-24T04:20:27;6.68;;;5.20;;
31378;SDS011;61664;48.112;11.662;2023-07-24T04:22:54;6.50;;;5.65;;
31378;SDS011;61664;48.112;11.662;2023-07-24T04:25:21;7.75;;;5.75;;
31378;SDS011;61664;48.112;11.662;2023-07-24T04:27:48;8.77;;;5.80;;
31378;SDS011;61664;48.112;11.662;2023-07-24T04:30:15;6.78;;;5.32;;
31378;SDS011;61664;48.112;11.662;2023-07-24T04:32:42;7.03;;;5.95;;
31378;SDS011;61664;48.112;11.662;2023-07-24T04:35:09;6.20;;;5.22;;
31378;SDS011;61664;48.112;11.662;2023-07-24T04:37:36;6.53;;;5.15;;
31378;SDS011;61664;48.112;11.662;2023-07-24T04:40:03;5.85;;;4.90;;
31378;SDS011;61664;48.112;11.662;2023-07-24T04:42:31;5.28;;;4.78;;
31378;SDS011;61664;48.112;11.662;2023-07-24T04:44:58;8.88;;;5.63;;
31378;SDS011;61664;48.112;11.662;2023-07-24T04:47:25;8.52;;;5.72;;
31378;SDS011;61664;48.112;11.662;2023-07-24T04:49:52;8.77;;;5.57;;
31378;SDS011;61664;48.112;11.662;2023-07-24T04:52:19;6.65;;;5.95;;
31378;SDS011;61664;48.112;11.662;2023-07-24T04:54:46;5.55;;;4.97;;
31378;SDS011;61664;48.112;11.662;2023-07-24T04:57:13;7.72;;;6.13;;
31378;SDS011;61664;48.112;11.662;2023-07-24T04:59:39;5.82;;;5.35;;
31378;SDS011;61664;48.112;11.662;2023-07-24T05:02:08;6.25;;;5.65;;
31378;SDS011;61664;48.112;11.662;2023-07-24T05:04:35;7.60;;;5.78;;
31378;SDS011;61664;48.112;11.662;2023-07-24T05:07:02;7.00;;;5.05;;
31378;SDS011;61664;48.112;11.662;2023-07-24T05:09:29;5.78;;;5.22;;
31378;SDS011;61664;48.112;11.662;2023-07-24T05:11:56;7.65;;;4.80;;
31378;SDS011;61664;48.112;11.662;2023-07-24T05:14:23;7.53;;;4.97;;
31378;SDS011;61664;48.112;11.662;2023-07-24T05:16:50;5.90;;;5.28;;
31378;SDS011;61664;48.112;11.662;2023-07-24T05:19:17;6.22;;;5.47;;
31378;SDS011;61664;48.112;11.662;2023-07-24T05:21:44;5.78;;;5.28;;
31378;SDS011;61664;48.112;11.662;2023-07-24T05:24:11;5.78;;;5.20;;
31378;SDS011;61664;48.112;11.662;2023-07-24T05:26:38;5.65;;;5.07;;
31378;SDS011;61664;48.112;11.662;2023-07-24T05:29:05;5.57;;;5.05;;
31378;SDS011;61664;48.112;11.662;2023-07-24T05:31:34;7.35;;;5.68;;
31378;SDS011;61664;48.112;11.662;2023-07-24T05:34:02;6.07;;;4.95;;
31378;SDS011;61664;48.112;11.662;2023-07-24T05:36:31;5.10;;;4.60;;
31378;SDS011;61664;48.112;11.662;2023-07-24T05:38:58;9.05;;;5.60;;
31378;SDS011;61664;48.112;11.662;2023-07-24T05:41:25;5.60;;;4.95;;
31378;SDS011;61664;48.112;11.662;2023-07-24T05:43:52;5.10;;;4.60;;
31378;SDS011;61664;48.112;11.662;2023-07-24T05:46:19;6.90;;;5.13;;
31378;SDS011;61664;48.112;11.662;2023-07-24T05:48:46;6.38;;;5.75;;
31378;SDS011;61664;48.112;11.662;2023-07-24T05:51:13;6.95;;;5.05;;
31378;SDS011;61664;48.112;11.662;2023-07-24T05:53:40;5.28;;;4.78;;
31378;SDS011;61664;48.112;11.662;2023-07-24T05:56:07;5.95;;;5.32;;
31378;SDS011;61664;48.112;11.662;2023-07-24T05:58:34;8.45;;;6.05;;
31378;SDS011;61664;48.112;11.662;2023-07-24T06:01:01;6.53;;;5.60;;
31378;SDS011;61664;48.112;11.662;2023-07-24T06:03:28;6.93;;;5.60;;
31378;SDS011;61664;48.112;11.662;2023-07-24T06:05:55;6.03;;;5.32;;
31378;SDS011;61664;48.112;11.662;2023-07-24T06:08:22;6.60;;;5.53;;
31378;SDS011;61664;48.112;11.662;2023-07-24T06:10:50;5.45;;;4.93;;
31378;SDS011;61664;48.112;11.662;2023-07-24T06:13:17;6.70;;;5.55;;
31378;SDS011;61664;48.112;11.662;2023-07-24T06:15:48;7.22;;;5.43;;
31378;SDS011;61664;48.112;11.662;2023-07-24T06:18:16;4.90;;;4.50;;
31378;SDS011;61664;48.112;11.662;2023-07-24T06:20:43;5.68;;;5.10;;
31378;SDS011;61664;48.112;11.662;2023-07-24T06:23:13;6.00;;;5.10;;
31378;SDS011;61664;48.112;11.662;2023-07-24T06:25:40;5.18;;;4.75;;
31378;SDS011;61664;48.112;11.662;2023-07-24T06:28:07;5.15;;;4.68;;
31378;SDS011;61664;48.112;11.662;2023-07-24T06:30:34;5.75;;;5.05;;
31378;SDS011;61664;48.112;11.662;2023-07-24T06:33:01;5.60;;;4.68;;
31378;SDS011;61664;48.112;11.662;2023-07-24T06:35:28;6.28;;;5.00;;
31378;SDS011;61664;48.112;11.662;2023-07-24T06:37:56;5.50;;;4.88;;
31378;SDS011;61664;48.112;11.662;2023-07-24T06:40:23;5.30;;;4.78;;
31378;SDS011;61664;48.112;11.662;2023-07-24T06:42:49;8.05;;;5.32;;
31378;SDS011;61664;48.112;11.662;2023-07-24T06:45:16;6.05;;;5.45;;
31378;SDS011;61664;48.112;11.662;2023-07-24T06:47:43;5.80;;;5.07;;
31378;SDS011;61664;48.112;11.662;2023-07-24T06:50:10;6.30;;;4.43;;
31378;SDS011;61664;48.112;11.662;2023-07-24T06:52:37;6.00;;;5.00;;
31378;SDS011;61664;48.112;11.662;2023-07-24T06:55:04;5.47;;;4.97;;
31378;SDS011;61664;48.112;11.662;2023-07-24T06:57:32;5.00;;;4.60;;
31378;SDS011;61664;48.112;11.662;2023-07-24T06:59:59;5.10;;;4.70;;
31378;SDS011;61664;48.112;11.662;2023-07-24T07:02:26;5.32;;;4.82;;
31378;SDS011;61664;48.112;11.662;2023-07-24T07:04:54;4.90;;;4.50;;
31378;SDS011;61664;48.112;11.662;2023-07-24T07:07:21;5.75;;;5.18;;
31378;SDS011;61664;48.112;11.662;2023-07-24T07:09:54;6.47;;;5.10;;
31378;SDS011;61664;48.112;11.662;2023-07-24T07:12:39;5.63;;;5.13;;
31378;SDS011;61664;48.112;11.662;2023-07-24T07:15:06;7.72;;;5.35;;
31378;SDS011;61664;48.112;11.662;2023-07-24T07:17:34;4.97;;;4.55;;
31378;SDS011;61664;48.112;11.662;2023-07-24T07:20:01;5.22;;;4.72;;
31378;SDS011;61664;48.112;11.662;2023-07-24T07:22:29;5.28;;;4.80;;
31378;SDS011;61664;48.112;11.662;2023-07-24T07:24:56;5.63;;;5.05;;
31378;SDS011;61664;48.112;11.662;2023-07-24T07:27:23;5.35;;;4.85;;
31378;SDS011;61664;48.112;11.662;2023-07-24T07:29:50;5.63;;;5.13;;
31378;SDS011;61664;48.112;11.662;2023-07-24T07:32:16;5.13;;;4.68;;
31378;SDS011;61664;48.112;11.662;2023-07-24T07:34:43;5.38;;;4.90;;
31378;SDS011;61664;48.112;11.662;2023-07-24T07:37:10;5.47;;;4.97;;
31378;SDS011;61664;48.112;11.662;2023-07-24T07:39:37;6.03;;;5.47;;
31378;SDS011;61664;48.112;11.662;2023-07-24T07:42:04;7.18;;;5.60;;
31378;SDS011;61664;48.112;11.662;2023-07-24T07:44:34;6.90;;;6.22;;
31378;SDS011;61664;48.112;11.662;2023-07-24T07:47:01;8.93;;;5.57;;
31378;SDS011;61664;48.112;11.662;2023-07-24T07:49:29;5.65;;;5.15;;
31378;SDS011;61664;48.112;11.662;2023-07-24T07:51:56;6.90;;;5.55;;
31378;SDS011;61664;48.112;11.662;2023-07-24T07:54:23;6.03;;;5.35;;
31378;SDS011;61664;48.112;11.662;2023-07-24T07:56:50;8.07;;;5.55;;
31378;SDS011;61664;48.112;11.662;2023-07-24T07:59:19;6.28;;;5.68;;
31378;SDS011;61664;48.112;11.662;2023-07-24T08:01:46;5.63;;;5.13;;
31378;SDS011;61664;48.112;11.662;2023-07-24T08:04:13;7.28;;;5.00;;
31378;SDS011;61664;48.112;11.662;2023-07-24T08:06:39;7.10;;;6.18;;
31378;SDS011;61664;48.112;11.662;2023-07-24T08:09:06;8.48;;;5.38;;
31378;SDS011;61664;48.112;11.662;2023-07-24T08:11:33;6.10;;;5.50;;
31378;SDS011;61664;48.112;11.662;2023-07-24T08:14:00;5.50;;;5.00;;
31378;SDS011;61664;48.112;11.662;2023-07-24T08:16:27;6.00;;;5.45;;
31378;SDS011;61664;48.112;11.662;2023-07-24T08:18:55;8.38;;;5.97;;
31378;SDS011;61664;48.112;11.662;2023-07-24T08:21:23;8.20;;;6.15;;
31378;SDS011;61664;48.112;11.662;2023-07-24T08:23:50;6.55;;;5.53;;
31378;SDS011;61664;48.112;11.662;2023-07-24T08:26:17;7.10;;;5.45;;
31378;SDS011;61664;48.112;11.662;2023-07-24T08:28:44;5.75;;;5.13;;
31378;SDS011;61664;48.112;11.662;2023-07-24T08:31:11;5.50;;;5.00;;
31378;SDS011;61664;48.112;11.662;2023-07-24T08:33:38;5.93;;;5.32;;
31378;SDS011;61664;48.112;11.662;2023-07-24T08:36:06;6.30;;;5.18;;
31378;SDS011;61664;48.112;11.662;2023-07-24T08:38:34;6.97;;;5.90;;
31378;SDS011;61664;48.112;11.662;2023-07-24T08:41:02;5.40;;;4.82;;
31378;SDS011;61664;48.112;11.662;2023-07-24T08:43:31;5.35;;;4.82;;
31378;SDS011;61664;48.112;11.662;2023-07-24T08:46:00;5.05;;;4.60;;
31378;SDS011;61664;48.112;11.662;2023-07-24T08:48:32;4.53;;;4.13;;
31378;SDS011;61664;48.112;11.662;2023-07-24T08:51:07;4.50;;;4.10;;
31378;SDS011;61664;48.112;11.662;2023-07-24T08:53:37;4.70;;;4.30;;
31378;SDS011;61664;48.112;11.662;2023-07-24T08:56:07;5.45;;;4.82;;
31378;SDS011;61664;48.112;11.662;2023-07-24T08:58:36;5.03;;;4.40;;
31378;SDS011;61664;48.112;11.662;2023-07-24T09:01:06;5.45;;;4.28;;
31378;SDS011;61664;48.112;11.662;2023-07-24T09:03:35;5.47;;;3.88;;
31378;SDS011;61664;48.112;11.662;2023-07-24T09:06:03;3.53;;;3.25;;
31378;SDS011;61664;48.112;11.662;2023-07-24T09:08:33;3.75;;;3.45;;
31378;SDS011;61664;48.112;11.662;2023-07-24T09:11:09;4.50;;;4.10;;
31378;SDS011;61664;48.112;11.662;2023-07-24T09:13:41;4.47;;;3.92;;
31378;SDS011;61664;48.112;11.662;2023-07-24T09:16:09;4.70;;;4.30;;
31378;SDS011;61664;48.112;11.662;2023-07-24T09:18:52;5.05;;;4.25;;
31378;SDS011;61664;48.112;11.662;2023-07-24T09:21:27;5.35;;;3.97;;
31378;SDS011;61664;48.112;11.662;2023-07-24T09:23:55;3.95;;;3.65;;
31378;SDS011;61664;48.112;11.662;2023-07-24T09:26:23;4.47;;;3.42;;
31378;SDS011;61664;48.112;11.662;2023-07-24T09:28:51;5.13;;;4.45;;
31378;SDS011;61664;48.112;11.662;2023-07-24T09:31:20;5.25;;;4.40;;
31378;SDS011;61664;48.112;11.662;2023-07-24T09:33:48;4.43;;;4.03;;
31378;SDS011;61664;48.112;11.662;2023-07-24T09:36:15;4.57;;;4.00;;
31378;SDS011;61664;48.112;11.662;2023-07-24T09:38:42;4.80;;;4.32;;
31378;SDS011;61664;48.112;11.662;2023-07-24T09:41:09;4.03;;;3.72;;
31378;SDS011;61664;48.112;11.662;2023-07-24T09:43:38;3.83;;;3.55;;
31378;SDS011;61664;48.112;11.662;2023-07-24T09:46:07;3.78;;;3.47;;
31378;SDS011;61664;48.112;11.662;2023-07-24T09:48:54;3.28;;;3.08;;
31378;SDS011;61664;48.112;11.662;2023-07-24T09:51:26;3.35;;;3.05;;
31378;SDS011;61664;48.112;11.662;2023-07-24T09:53:58;3.60;;;3.30;;
31378;SDS011;61664;48.112;11.662;2023-07-24T09:56:44;3.25;;;2.97;;
31378;SDS011;61664;48.112;11.662;2023-07-24T09:59:22;2.67;;;2.47;;
31378;SDS011;61664;48.112;11.662;2023-07-24T10:01:53;3.13;;;2.50;;
31378;SDS011;61664;48.112;11.662;2023-07-24T10:04:20;2.22;;;1.92;;
31378;SDS011;61664;48.112;11.662;2023-07-24T10:06:51;2.00;;;1.90;;
31378;SDS011;61664;48.112;11.662;2023-07-24T10:09:18;2.53;;;2.33;;
31378;SDS011;61664;48.112;11.662;2023-07-24T10:14:15;1.88;;;1.77;;
31378;SDS011;61664;48.112;11.662;2023-07-24T10:16:44;1.58;;;1.48;;
31378;SDS011;61664;48.112;11.662;2023-07-24T10:19:12;2.45;;;2.25;;
31378;SDS011;61664;48.112;11.662;2023-07-24T10:24:17;1.83;;;1.73;;
31378;SDS011;61664;48.112;11.662;2023-07-24T10:27:02;2.47;;;2.33;;
31378;SDS011;61664;48.112;11.662;2023-07-24T10:29:33;2.07;;;1.93;;
31378;SDS011;61664;48.112;11.662;2023-07-24T10:32:02;2.50;;;2.30;;
31378;SDS011;61664;48.112;11.662;2023-07-24T10:34:39;2.25;;;1.98;;
31378;SDS011;61664;48.112;11.662;2023-07-24T10:37:07;2.20;;;2.05;;
31378;SDS011;61664;48.112;11.662;2023-07-24T10:39:38;2.00;;;1.80;;
31378;SDS011;61664;48.112;11.662;2023-07-24T10:42:10;2.55;;;2.35;;
31378;SDS011;61664;48.112;11.662;2023-07-24T10:44:37;1.70;;;1.60;;
31378;SDS011;61664;48.112;11.662;2023-07-24T10:47:05;2.28;;;2.08;;
31378;SDS011;61664;48.112;11.662;2023-07-24T10:49:33;2.38;;;2.05;;
31378;SDS011;61664;48.112;11.662;2023-07-24T10:52:00;1.77;;;1.67;;
31378;SDS011;61664;48.112;11.662;2023-07-24T10:54:27;1.98;;;1.88;;
31378;SDS011;61664;48.112;11.662;2023-07-24T10:56:57;3.10;;;2.10;;
31378;SDS011;61664;48.112;11.662;2023-07-24T10:59:37;2.35;;;2.05;;
31378;SDS011;61664;48.112;11.662;2023-07-24T11:02:06;2.65;;;2.45;;
31378;SDS011;61664;48.112;11.662;2023-07-24T11:04:34;2.30;;;2.10;;
31378;SDS011;61664;48.112;11.662;2023-07-24T11:07:01;2.13;;;2.03;;
31378;SDS011;61664;48.112;11.662;2023-07-24T11:09:38;2.00;;;1.90;;
31378;SDS011;61664;48.112;11.662;2023-07-24T11:12:13;2.03;;;1.92;;
31378;SDS011;61664;48.112;11.662;2023-07-24T11:14:52;2.38;;;2.28;;
31378;SDS011;61664;48.112;11.662;2023-07-24T11:17:20;2.42;;;2.28;;
31378;SDS011;61664;48.112;11.662;2023-07-24T11:19:48;2.28;;;2.17;;
31378;SDS011;61664;48.112;11.662;2023-07-24T11:22:14;2.30;;;2.10;;
31378;SDS011;61664;48.112;11.662;2023-07-24T11:24:47;2.42;;;2.22;;
31378;SDS011;61664;48.112;11.662;2023-07-24T11:27:15;2.03;;;1.92;;
31378;SDS011;61664;48.112;11.662;2023-07-24T11:29:49;2.58;;;2.38;;
31378;SDS011;61664;48.112;11.662;2023-07-24T11:32:19;2.72;;;2.53;;
31378;SDS011;61664;48.112;11.662;2023-07-24T11:34:50;2.63;;;2.42;;
31378;SDS011;61664;48.112;11.662;2023-07-24T11:37:18;2.10;;;2.00;;
31378;SDS011;61664;48.112;11.662;2023-07-24T11:39:55;2.33;;;2.20;;
31378;SDS011;61664;48.112;11.662;2023-07-24T11:42:27;2.40;;;2.13;;
31378;SDS011;61664;48.112;11.662;2023-07-24T11:44:54;2.65;;;2.45;;
31378;SDS011;61664;48.112;11.662;2023-07-24T11:47:21;2.40;;;2.20;;
31378;SDS011;61664;48.112;11.662;2023-07-24T11:50:01;2.10;;;1.98;;
31378;SDS011;61664;48.112;11.662;2023-07-24T11:55:31;2.22;;;2.13;;
31378;SDS011;61664;48.112;11.662;2023-07-24T11:57:59;5.30;;;2.50;;
31378;SDS011;61664;48.112;11.662;2023-07-24T12:00:28;3.53;;;3.20;;
31378;SDS011;61664;48.112;11.662;2023-07-24T12:03:02;2.83;;;2.63;;
31378;SDS011;61664;48.112;11.662;2023-07-24T12:05:41;2.80;;;2.60;;
31378;SDS011;61664;48.112;11.662;2023-07-24T12:08:13;2.97;;;2.78;;
31378;SDS011;61664;48.112;11.662;2023-07-24T12:10:40;3.00;;;2.70;;
31378;SDS011;61664;48.112;11.662;2023-07-24T12:13:07;2.63;;;2.42;;
31378;SDS011;61664;48.112;11.662;2023-07-24T12:15:35;2.47;;;2.28;;
31378;SDS011;61664;48.112;11.662;2023-07-24T12:18:04;2.20;;;2.03;;
31378;SDS011;61664;48.112;11.662;2023-07-24T12:20:33;2.15;;;2.05;;
31378;SDS011;61664;48.112;11.662;2023-07-24T12:23:01;2.28;;;2.08;;
31378;SDS011;61664;48.112;11.662;2023-07-24T12:25:28;1.95;;;1.85;;
31378;SDS011;61664;48.112;11.662;2023-07-24T12:27:55;2.13;;;2.03;;
31378;SDS011;61664;48.112;11.662;2023-07-24T12:30:22;2.38;;;2.17;;
31378;SDS011;61664;48.112;11.662;2023-07-24T12:32:49;2.10;;;1.90;;
31378;SDS011;61664;48.112;11.662;2023-07-24T12:35:16;3.05;;;2.85;;
31378;SDS011;61664;48.112;11.662;2023-07-24T12:37:44;2.78;;;2.58;;
31378;SDS011;61664;48.112;11.662;2023-07-24T12:40:12;2.50;;;2.30;;
31378;SDS011;61664;48.112;11.662;2023-07-24T12:42:39;2.60;;;2.28;;
31378;SDS011;61664;48.112;11.662;2023-07-24T12:45:06;2.78;;;2.58;;
31378;SDS011;61664;48.112;11.662;2023-07-24T12:47:33;2.75;;;2.25;;
31378;SDS011;61664;48.112;11.662;2023-07-24T12:50:01;2.42;;;2.33;;
31378;SDS011;61664;48.112;11.662;2023-07-24T12:52:33;2.90;;;2.70;;
31378;SDS011;61664;48.112;11.662;2023-07-24T12:55:00;2.38;;;2.17;;
31378;SDS011;61664;48.112;11.662;2023-07-24T12:57:28;2.70;;;2.50;;
31378;SDS011;61664;48.112;11.662;2023-07-24T12:59:55;2.50;;;2.33;;
31378;SDS011;61664;48.112;11.662;2023-07-24T13:02:22;2.78;;;2.42;;
31378;SDS011;61664;48.112;11.662;2023-07-24T13:04:49;2.53;;;2.33;;
31378;SDS011;61664;48.112;11.662;2023-07-24T13:07:16;2.50;;;2.30;;
31378;SDS011;61664;48.112;11.662;2023-07-24T13:09:43;3.42;;;2.67;;
31378;SDS011;61664;48.112;11.662;2023-07-24T13:12:10;2.47;;;2.28;;
31378;SDS011;61664;48.112;11.662;2023-07-24T13:14:37;2.55;;;2.35;;
31378;SDS011;61664;48.112;11.662;2023-07-24T13:17:08;4.30;;;2.50;;
31378;SDS011;61664;48.112;11.662;2023-07-24T13:19:35;2.70;;;2.50;;
31378;SDS011;61664;48.112;11.662;2023-07-24T13:22:03;2.17;;;1.98;;
31378;SDS011;61664;48.112;11.662;2023-07-24T13:24:30;2.88;;;2.60;;
31378;SDS011;61664;48.112;11.662;2023-07-24T13:26:57;2.13;;;1.95;;
31378;SDS011;61664;48.112;11.662;2023-07-24T13:29:24;9.48;;;2.50;;
31378;SDS011;61664;48.112;11.662;2023-07-24T13:31:52;2.42;;;2.22;;
31378;SDS011;61664;48.112;11.662;2023-07-24T13:34:19;2.35;;;1.90;;
31378;SDS011;61664;48.112;11.662;2023-07-24T13:36:47;2.88;;;2.33;;
31378;SDS011;61664;48.112;11.662;2023-07-24T13:39:14;2.35;;;2.25;;
31378;SDS011;61664;48.112;11.662;2023-07-24T13:41:41;2.53;;;2.33;;
31378;SDS011;61664;48.112;11.662;2023-07-24T13:44:08;2.42;;;2.22;;
31378;SDS011;61664;48.112;11.662;2023-07-24T13:46:36;2.55;;;2.35;;
31378;SDS011;61664;48.112;11.662;2023-07-24T13:49:05;2.20;;;2.00;;
31378;SDS011;61664;48.112;11.662;2023-07-24T13:51:33;2.55;;;2.35;;
31378;SDS011;61664;48.112;11.662;2023-07-24T13:54:00;2.33;;;2.13;;
31378;SDS011;61664;48.112;11.662;2023-07-24T13:56:29;2.50;;;2.30;;
31378;SDS011;61664;48.112;11.662;2023-07-24T13:59:00;2.35;;;2.17;;
31378;SDS011;61664;48.112;11.662;2023-07-24T14:01:27;2.83;;;2.63;;
31378;SDS011;61664;48.112;11.662;2023-07-24T14:03:54;2.50;;;2.30;;
31378;SDS011;61664;48.112;11.662;2023-07-24T14:06:21;2.83;;;2.53;;
31378;SDS011;61664;48.112;11.662;2023-07-24T14:08:48;2.33;;;2.03;;
31378;SDS011;61664;48.112;11.662;2023-07-24T14:11:15;2.70;;;2.50;;
31378;SDS011;61664;48.112;11.662;2023-07-24T14:13:42;2.92;;;2.70;;
31378;SDS011;61664;48.112;11.662;2023-07-24T14:16:11;2.40;;;2.20;;
31378;SDS011;61664;48.112;11.662;2023-07-24T14:18:38;2.15;;;2.05;;
31378;SDS011;61664;48.112;11.662;2023-07-24T14:21:05;2.33;;;2.13;;
31378;SDS011;61664;48.112;11.662;2023-07-24T14:23:31;2.70;;;2.45;;
31378;SDS011;61664;48.112;11.662;2023-07-24T14:25:58;1.98;;;1.88;;
31378;SDS011;61664;48.112;11.662;2023-07-24T14:28:25;1.80;;;1.70;;
31378;SDS011;61664;48.112;11.662;2023-07-24T14:30:54;2.17;;;1.98;;
31378;SDS011;61664;48.112;11.662;2023-07-24T14:33:21;2.00;;;1.90;;
31378;SDS011;61664;48.112;11.662;2023-07-24T14:35:48;1.75;;;1.65;;
31378;SDS011;61664;48.112;11.662;2023-07-24T14:38:16;1.60;;;1.50;;
31378;SDS011;61664;48.112;11.662;2023-07-24T14:40:43;1.55;;;1.45;;
31378;SDS011;61664;48.112;11.662;2023-07-24T14:43:10;1.60;;;1.45;;
31378;SDS011;61664;48.112;11.662;2023-07-24T14:45:36;2.50;;;1.63;;
31378;SDS011;61664;48.112;11.662;2023-07-24T14:48:04;1.98;;;1.88;;
31378;SDS011;61664;48.112;11.662;2023-07-24T14:50:35;1.92;;;1.83;;